Time;durP1;ratioP1;P1;durP2;ratioP2;P2;SDS_P1;SDS_P2;PMS_P1;PMS_P2;Temp;Humidity;BMP_temperature;BMP_pressure;BME280_temperature;BME280_humidity;BME280_pressure;Samples;Min_cycle;Max_cycle;Signal;HPM_P1;HPM_P2
2021/06/20 00:00:29;;;;;;;13.80;12.50;;;26.30;95.30;;;;;;4991478;28;20441;-60
2021/06/20 00:02:56;;;;;;;13.37;12.17;;;26.30;95.40;;;;;;4993803;28;20453;-60
2021/06/20 00:05:35;;;;;;;12.30;11.10;;;26.20;95.50;;;;;;4999124;28;20449;-59
2021/06/20 00:08:07;;;;;;;12.83;11.63;;;26.20;95.10;;;;;;4999709;28;20481;-60
2021/06/20 00:10:37;;;;;;;15.07;13.57;;;26.10;95.30;;;;;;5000431;28;20526;-60
2021/06/20 00:13:03;;;;;;;12.23;11.20;;;26.10;95.70;;;;;;4993460;28;20725;-60
2021/06/20 00:15:30;;;;;;;13.60;12.47;;;26.10;95.40;;;;;;5008879;28;20946;-49
2021/06/20 00:17:56;;;;;;;12.47;11.37;;;26.20;95.10;;;;;;4990998;28;21036;-49
2021/06/20 00:20:27;;;;;;;12.47;11.47;;;26.20;94.80;;;;;;4993448;28;20551;-49
2021/06/20 00:22:53;;;;;;;12.60;11.50;;;26.10;94.90;;;;;;4996954;28;20486;-50
2021/06/20 00:25:23;;;;;;;13.00;11.80;;;26.10;95.10;;;;;;4996114;28;20478;-49
2021/06/20 00:27:50;;;;;;;15.27;11.10;;;26.10;95.30;;;;;;4992294;28;20474;-49
2021/06/20 00:30:19;;;;;;;13.77;11.07;;;26.10;95.10;;;;;;4994103;28;20958;-49
2021/06/20 00:32:46;;;;;;;12.20;11.10;;;26.10;94.80;;;;;;4997943;28;20825;-48
2021/06/20 00:35:12;;;;;;;10.53;9.83;;;26.10;94.30;;;;;;4993709;28;20527;-49
2021/06/20 00:37:38;;;;;;;10.87;10.00;;;26.10;93.70;;;;;;4989896;28;20490;-49
2021/06/20 00:40:05;;;;;;;12.30;11.20;;;26.20;93.40;;;;;;4990235;28;20974;-49
2021/06/20 00:42:32;;;;;;;12.30;10.50;;;26.30;93.30;;;;;;4995434;28;20570;-49
2021/06/20 00:44:57;;;;;;;12.63;11.40;;;26.30;93.20;;;;;;4999609;28;20996;-49
2021/06/20 00:47:23;;;;;;;13.17;12.07;;;26.40;93.50;;;;;;4999927;28;20527;-49
2021/06/20 00:49:49;;;;;;;11.70;10.60;;;26.30;94.10;;;;;;4994025;28;20181;-49
2021/06/20 00:52:16;;;;;;;12.63;11.63;;;26.30;94.30;;;;;;4998940;28;20192;-49
2021/06/20 00:54:46;;;;;;;13.03;11.83;;;26.30;94.60;;;;;;4991510;28;20285;-50
2021/06/20 00:57:17;;;;;;;11.97;10.93;;;26.10;94.80;;;;;;4997481;28;20961;-49
2021/06/20 00:59:44;;;;;;;12.70;11.40;;;26.10;94.90;;;;;;5000282;28;20533;-50
2021/06/20 01:02:11;;;;;;;12.47;11.10;;;26.00;95.10;;;;;;4998194;28;20975;-49
2021/06/20 01:04:38;;;;;;;12.13;10.90;;;26.00;95.20;;;;;;4995689;28;20447;-50
2021/06/20 01:07:04;;;;;;;12.03;10.87;;;26.10;95.20;;;;;;4998633;28;20875;-49
2021/06/20 01:09:30;;;;;;;13.23;11.93;;;26.00;95.20;;;;;;5001539;28;20440;-50
2021/06/20 01:11:56;;;;;;;12.30;11.20;;;26.00;95.20;;;;;;4994122;28;20548;-49
2021/06/20 01:14:21;;;;;;;13.30;10.20;;;26.10;95.30;;;;;;4996476;28;20446;-49
2021/06/20 01:16:49;;;;;;;17.93;10.30;;;26.10;94.10;;;;;;5005774;28;20206;-50
2021/06/20 01:19:16;;;;;;;18.73;9.40;;;26.10;93.40;;;;;;5000269;28;20279;-49
2021/06/20 01:21:43;;;;;;;16.30;8.70;;;26.20;92.70;;;;;;4995198;28;20538;-49
2021/06/20 01:24:09;;;;;;;19.30;9.70;;;26.30;92.30;;;;;;4990424;28;20991;-48
2021/06/20 01:26:35;;;;;;;21.57;10.07;;;26.50;91.60;;;;;;4998542;28;20469;-49
2021/06/20 01:29:05;;;;;;;15.03;9.23;;;26.50;91.10;;;;;;4990467;28;20652;-49
2021/06/20 01:31:32;;;;;;;18.73;8.93;;;26.50;90.80;;;;;;4992910;28;20199;-49
2021/06/20 01:33:58;;;;;;;20.67;8.37;;;26.70;90.60;;;;;;5003239;28;20486;-48
2021/06/20 01:36:24;;;;;;;21.77;8.63;;;26.70;90.40;;;;;;4999504;28;20447;-49
2021/06/20 01:38:49;;;;;;;22.00;9.07;;;26.80;90.10;;;;;;4995851;28;20277;-49
2021/06/20 01:41:15;;;;;;;22.07;9.03;;;26.80;90.00;;;;;;4989976;28;20196;-49
2021/06/20 01:43:40;;;;;;;24.40;8.67;;;26.80;90.10;;;;;;4989889;28;20260;-49
2021/06/20 01:46:06;;;;;;;24.43;9.03;;;26.80;90.10;;;;;;4992093;28;20221;-49
2021/06/20 01:48:32;;;;;;;22.77;9.07;;;26.80;89.90;;;;;;4993514;28;21027;-49
2021/06/20 01:50:57;;;;;;;18.40;8.83;;;26.80;89.80;;;;;;4995678;28;20183;-49
2021/06/20 01:53:23;;;;;;;18.90;8.50;;;26.80;89.70;;;;;;4999345;28;20190;-49
2021/06/20 01:55:49;;;;;;;18.10;8.27;;;26.80;89.80;;;;;;5004832;28;20191;-48
2021/06/20 01:58:18;;;;;;;26.60;9.30;;;26.70;89.80;;;;;;4988900;28;20212;-49
2021/06/20 02:00:47;;;;;;;18.07;8.10;;;26.70;89.60;;;;;;4994740;28;20473;-49
2021/06/20 02:03:19;;;;;;;23.30;8.77;;;26.70;89.70;;;;;;5001730;28;20454;-49
2021/06/20 02:05:46;;;;;;;23.27;8.70;;;26.60;89.80;;;;;;4990929;28;20447;-49
2021/06/20 02:08:13;;;;;;;19.37;8.40;;;26.60;89.60;;;;;;4999680;28;20480;-50
2021/06/20 02:10:41;;;;;;;16.93;8.43;;;26.60;89.70;;;;;;4998050;28;20455;-49
2021/06/20 02:13:07;;;;;;;18.00;8.20;;;26.60;89.70;;;;;;5000891;28;20444;-49
2021/06/20 02:15:33;;;;;;;19.10;8.43;;;26.50;89.60;;;;;;4989543;28;20502;-49
2021/06/20 02:18:03;;;;;;;21.33;8.60;;;26.50;89.80;;;;;;4996691;28;20312;-49
2021/06/20 02:20:29;;;;;;;15.90;7.63;;;26.50;90.00;;;;;;4999983;28;20994;-49
2021/06/20 02:22:55;;;;;;;21.70;9.03;;;26.50;90.00;;;;;;4992382;28;20458;-49
2021/06/20 02:25:22;;;;;;;14.60;7.47;;;26.50;90.10;;;;;;4990985;28;20450;-49
2021/06/20 02:27:49;;;;;;;15.27;7.27;;;26.40;90.20;;;;;;4999255;28;20482;-49
2021/06/20 02:30:16;;;;;;;23.77;8.53;;;26.40;90.40;;;;;;4990678;28;20452;-49
2021/06/20 02:32:42;;;;;;;22.80;7.53;;;26.30;90.40;;;;;;5000472;28;20459;-49
2021/06/20 02:35:10;;;;;;;26.47;8.60;;;26.30;90.60;;;;;;4989226;28;20440;-49
2021/06/20 02:37:36;;;;;;;17.40;7.83;;;26.30;90.80;;;;;;4989070;28;21011;-49
2021/06/20 02:40:03;;;;;;;20.63;6.97;;;26.20;90.90;;;;;;4998018;28;20449;-48
2021/06/20 02:42:29;;;;;;;22.70;8.50;;;26.30;91.00;;;;;;4990335;28;20445;-48
2021/06/20 02:44:55;;;;;;;23.03;8.50;;;26.30;91.10;;;;;;5003626;28;20971;-49
2021/06/20 02:47:20;;;;;;;18.20;8.50;;;26.20;91.20;;;;;;4990164;28;20221;-48
2021/06/20 02:49:46;;;;;;;22.50;7.73;;;26.20;91.30;;;;;;4991074;28;20448;-48
2021/06/20 02:52:14;;;;;;;18.87;8.03;;;26.20;91.30;;;;;;4999297;28;20182;-49
2021/06/20 02:54:51;;;;;;;20.47;7.80;;;26.20;91.40;;;;;;4996168;28;20189;-49
2021/06/20 02:57:22;;;;;;;17.50;7.80;;;26.20;91.50;;;;;;5005034;28;20557;-48
2021/06/20 02:59:49;;;;;;;18.27;8.33;;;26.20;91.50;;;;;;4995253;28;20447;-49
2021/06/20 03:02:15;;;;;;;18.20;8.10;;;26.20;91.60;;;;;;5000560;28;20479;-49
2021/06/20 03:04:41;;;;;;;17.67;8.50;;;26.10;91.80;;;;;;4994628;28;20450;-49
2021/06/20 03:07:07;;;;;;;19.43;7.60;;;26.10;91.90;;;;;;5004383;28;20474;-49
2021/06/20 03:09:35;;;;;;;24.33;9.87;;;26.10;92.20;;;;;;4993125;28;20946;-49
2021/06/20 03:12:01;;;;;;;16.47;7.70;;;26.20;91.90;;;;;;5005880;28;20989;-49
2021/06/20 03:14:27;;;;;;;17.67;7.60;;;26.20;91.70;;;;;;5003855;28;20546;-48
2021/06/20 03:16:53;;;;;;;20.43;8.63;;;26.20;91.70;;;;;;4999746;28;20559;-48
2021/06/20 03:19:19;;;;;;;23.10;7.90;;;26.10;91.70;;;;;;4992071;28;20447;-49
2021/06/20 03:21:44;;;;;;;20.37;8.70;;;26.00;91.70;;;;;;4995607;28;20196;-47
2021/06/20 03:24:10;;;;;;;23.40;8.80;;;26.00;91.80;;;;;;4995873;28;20189;-49
2021/06/20 03:26:37;;;;;;;13.67;7.73;;;26.00;92.00;;;;;;5003032;28;20666;-49
2021/06/20 03:29:04;;;;;;;15.87;8.10;;;25.90;92.20;;;;;;5000282;28;20283;-49
2021/06/20 03:31:29;;;;;;;19.37;7.37;;;26.00;92.30;;;;;;4992565;28;20444;-50
2021/06/20 03:33:59;;;;;;;17.07;7.40;;;26.00;92.30;;;;;;4999722;28;20468;-49
2021/06/20 03:36:25;;;;;;;17.70;8.50;;;26.10;92.30;;;;;;4998584;28;20189;-49
2021/06/20 03:38:51;;;;;;;12.40;8.27;;;26.10;92.50;;;;;;4991421;28;20949;-49
2021/06/20 03:41:16;;;;;;;19.57;8.80;;;26.20;93.10;;;;;;4995009;28;20443;-49
2021/06/20 03:43:42;;;;;;;18.27;9.80;;;26.10;92.80;;;;;;5000814;28;20196;-49
2021/06/20 03:46:09;;;;;;;20.50;9.30;;;26.20;92.80;;;;;;4999685;28;20207;-49
2021/06/20 03:48:36;;;;;;;19.07;7.63;;;26.10;92.90;;;;;;4987821;28;20891;-48
2021/06/20 03:51:01;;;;;;;17.80;8.43;;;26.10;92.80;;;;;;4993811;28;20468;-48
2021/06/20 03:53:27;;;;;;;16.20;9.30;;;26.10;92.70;;;;;;4991706;28;20956;-49
2021/06/20 03:55:54;;;;;;;20.10;9.10;;;26.00;92.70;;;;;;4989961;28;20650;-49
2021/06/20 03:58:20;;;;;;;15.77;8.93;;;26.00;92.80;;;;;;4991066;28;20216;-49
2021/06/20 04:00:45;;;;;;;19.83;8.30;;;26.00;93.00;;;;;;4999825;28;20459;-48
2021/06/20 04:03:11;;;;;;;19.33;8.40;;;25.90;93.50;;;;;;5004615;28;20525;-50
2021/06/20 04:05:37;;;;;;;22.80;8.00;;;25.90;93.70;;;;;;4995175;28;20183;-49
2021/06/20 04:08:02;;;;;;;21.83;8.07;;;25.70;94.20;;;;;;4998369;28;20216;-47
2021/06/20 04:10:28;;;;;;;21.33;8.40;;;25.70;94.60;;;;;;4992083;28;20187;-48
2021/06/20 04:12:54;;;;;;;15.63;8.20;;;25.80;94.40;;;;;;4999452;28;20278;-50
2021/06/20 04:15:21;;;;;;;16.50;8.50;;;25.70;94.60;;;;;;4991224;28;20272;-50
2021/06/20 04:17:46;;;;;;;17.57;8.53;;;25.70;94.80;;;;;;4987061;28;20526;-50
2021/06/20 04:20:13;;;;;;;15.97;7.50;;;25.80;94.80;;;;;;4984118;28;20452;-49
2021/06/20 04:22:40;;;;;;;17.47;9.87;;;25.80;94.60;;;;;;4984576;28;20295;-49
2021/06/20 04:25:07;;;;;;;17.70;7.60;;;25.70;94.70;;;;;;4988107;28;20479;-48
2021/06/20 04:27:32;;;;;;;18.80;7.93;;;25.80;94.80;;;;;;4987346;28;20493;-49
2021/06/20 04:29:58;;;;;;;12.30;7.40;;;25.70;94.90;;;;;;4985041;28;20448;-49
2021/06/20 04:32:24;;;;;;;21.57;7.97;;;25.60;95.00;;;;;;4986637;28;20226;-49
2021/06/20 04:34:49;;;;;;;21.33;8.73;;;25.60;95.30;;;;;;4985530;28;20665;-49
2021/06/20 04:37:15;;;;;;;18.40;8.00;;;25.50;95.40;;;;;;4985659;28;20219;-49
2021/06/20 04:39:40;;;;;;;21.10;8.10;;;25.50;95.30;;;;;;4985487;28;20210;-48
2021/06/20 04:42:09;;;;;;;15.67;7.60;;;25.40;95.50;;;;;;4988212;28;20215;-49
2021/06/20 04:44:44;;;;;;;17.13;8.10;;;25.40;96.10;;;;;;4985844;28;20231;-50
2021/06/20 04:47:14;;;;;;;19.73;7.83;;;25.50;96.60;;;;;;4985289;28;20473;-48
2021/06/20 04:49:40;;;;;;;16.40;8.63;;;25.50;96.60;;;;;;4985860;28;20449;-49
2021/06/20 04:52:07;;;;;;;16.03;8.67;;;25.40;96.60;;;;;;4985295;28;20443;-49
2021/06/20 04:54:36;;;;;;;15.93;7.80;;;25.40;96.50;;;;;;4985834;28;20532;-50
2021/06/20 04:57:03;;;;;;;11.90;7.37;;;25.50;96.90;;;;;;4985193;28;20509;-50
2021/06/20 04:59:29;;;;;;;16.20;7.43;;;25.50;96.90;;;;;;4984789;28;20446;-49
2021/06/20 05:01:55;;;;;;;14.80;7.97;;;25.50;97.40;;;;;;4984254;28;20461;-48
2021/06/20 05:04:20;;;;;;;19.83;7.80;;;25.50;97.60;;;;;;4985228;28;20473;-47
2021/06/20 05:06:46;;;;;;;14.33;7.83;;;25.50;97.40;;;;;;4984326;28;20230;-49
2021/06/20 05:09:12;;;;;;;16.00;8.53;;;25.40;97.50;;;;;;4984837;28;20187;-48
2021/06/20 05:11:37;;;;;;;14.10;7.37;;;25.40;97.60;;;;;;4986015;28;20532;-49
2021/06/20 05:14:03;;;;;;;12.73;6.87;;;25.40;97.60;;;;;;4985792;28;20295;-48
2021/06/20 05:16:28;;;;;;;12.30;7.37;;;25.40;97.60;;;;;;4985639;28;20224;-48
2021/06/20 05:18:54;;;;;;;10.47;6.70;;;25.40;97.60;;;;;;4987246;28;20591;-48
2021/06/20 05:21:20;;;;;;;12.07;6.53;;;25.40;97.60;;;;;;4985101;28;20194;-49
2021/06/20 05:23:47;;;;;;;13.87;6.07;;;25.30;96.80;;;;;;4985333;28;20555;-58
2021/06/20 05:26:13;;;;;;;13.80;6.10;;;25.30;96.80;;;;;;4984536;28;20451;-58
2021/06/20 05:28:39;;;;;;;13.20;6.77;;;25.30;96.50;;;;;;4985221;28;20468;-58
2021/06/20 05:31:05;;;;;;;12.43;6.40;;;25.40;96.40;;;;;;4984968;28;21039;-60
2021/06/20 05:33:31;;;;;;;14.73;6.77;;;25.40;96.20;;;;;;4989186;28;20235;-61
2021/06/20 05:35:56;;;;;;;7.10;5.47;;;25.50;96.00;;;;;;4986098;28;20199;-60
2021/06/20 05:38:22;;;;;;;16.57;5.67;;;25.60;94.70;;;;;;4980232;28;20242;-61
2021/06/20 05:40:48;;;;;;;13.93;5.30;;;25.60;94.70;;;;;;4988011;28;20199;-61
2021/06/20 05:43:13;;;;;;;9.47;5.00;;;25.60;94.80;;;;;;4986774;28;20191;-62
2021/06/20 05:45:39;;;;;;;9.83;5.13;;;25.70;94.80;;;;;;4985561;28;20191;-60
2021/06/20 05:48:05;;;;;;;9.83;5.30;;;25.70;94.30;;;;;;4996387;28;20227;-61
2021/06/20 05:50:31;;;;;;;10.37;4.90;;;25.70;94.40;;;;;;5000204;28;20652;-60
2021/06/20 05:52:56;;;;;;;11.50;5.07;;;25.70;94.10;;;;;;4986838;28;20438;-60
2021/06/20 05:55:23;;;;;;;6.30;4.00;;;25.60;94.00;;;;;;4990236;28;20211;-61
2021/06/20 05:57:48;;;;;;;10.83;4.20;;;25.60;94.00;;;;;;4988065;28;20211;-61
2021/06/20 06:00:14;;;;;;;10.63;3.90;;;25.60;94.00;;;;;;4988715;28;20523;-60
2021/06/20 06:02:41;;;;;;;15.60;4.80;;;25.60;93.80;;;;;;4997296;28;20665;-60
2021/06/20 06:05:08;;;;;;;8.30;4.67;;;25.60;93.90;;;;;;4989243;28;21016;-61
2021/06/20 06:07:34;;;;;;;10.97;5.10;;;25.60;93.80;;;;;;4991129;28;20485;-60
2021/06/20 06:09:59;;;;;;;8.53;4.63;;;25.70;93.70;;;;;;5003634;28;20444;-61
2021/06/20 06:12:25;;;;;;;6.30;4.30;;;25.80;93.40;;;;;;4995068;28;20439;-61
2021/06/20 06:14:55;;;;;;;8.23;4.00;;;25.90;93.20;;;;;;4990696;28;20579;-61
2021/06/20 06:17:22;;;;;;;9.80;3.80;;;26.10;92.90;;;;;;4998101;28;20473;-61
2021/06/20 06:19:48;;;;;;;9.33;4.33;;;26.10;92.90;;;;;;4994587;28;20458;-61
2021/06/20 06:22:19;;;;;;;9.83;4.90;;;26.40;92.90;;;;;;4995167;28;20520;-63
2021/06/20 06:24:49;;;;;;;6.87;3.77;;;26.60;92.00;;;;;;4992143;28;20452;-62
2021/06/20 06:27:16;;;;;;;8.70;3.93;;;26.90;91.10;;;;;;4991950;28;20483;-62
2021/06/20 06:29:42;;;;;;;5.40;4.13;;;26.70;90.90;;;;;;4991352;28;20532;-63
2021/06/20 06:32:09;;;;;;;8.10;3.80;;;26.80;90.70;;;;;;5008238;28;20968;-64
2021/06/20 06:34:36;;;;;;;10.23;4.80;;;27.00;90.70;;;;;;4997888;28;20492;-63
2021/06/20 06:37:02;;;;;;;8.60;4.07;;;27.20;90.40;;;;;;4992838;28;20470;-72
2021/06/20 06:39:29;;;;;;;4.67;3.47;;;27.30;90.00;;;;;;4999286;28;20542;-65
2021/06/20 06:41:55;;;;;;;6.33;3.70;;;27.40;89.20;;;;;;4993157;28;20446;-66
2021/06/20 06:44:21;;;;;;;7.20;3.73;;;27.50;88.30;;;;;;4996982;28;20642;-65
2021/06/20 06:46:48;;;;;;;7.00;3.97;;;27.60;88.10;;;;;;4998855;28;20487;-62
2021/06/20 06:49:14;;;;;;;10.53;4.07;;;27.80;87.80;;;;;;4995414;28;20453;-63
2021/06/20 06:51:40;;;;;;;7.40;4.17;;;27.90;87.10;;;;;;5002607;28;20441;-63
2021/06/20 06:54:05;;;;;;;10.07;5.40;;;27.90;87.10;;;;;;4995596;28;20824;-64
2021/06/20 06:56:31;;;;;;;6.30;4.87;;;27.80;87.40;;;;;;4992206;28;21105;-64
2021/06/20 06:58:58;;;;;;;7.13;4.63;;;27.50;88.50;;;;;;4988761;28;20183;-64
2021/06/20 07:01:24;;;;;;;10.90;5.40;;;27.60;89.30;;;;;;4989963;28;20206;-62
2021/06/20 07:03:51;;;;;;;11.93;5.00;;;27.60;89.80;;;;;;4994149;28;20498;-63
2021/06/20 07:06:19;;;;;;;7.50;4.77;;;27.70;88.50;;;;;;4997377;28;20195;-64
2021/06/20 07:08:44;;;;;;;8.93;4.60;;;27.80;88.10;;;;;;4993286;28;20464;-64
2021/06/20 07:11:10;;;;;;;15.83;7.47;;;27.50;88.00;;;;;;4999862;28;20460;-66
2021/06/20 07:13:35;;;;;;;9.80;6.30;;;27.70;90.30;;;;;;4994046;28;20186;-63
2021/06/20 07:16:01;;;;;;;11.43;7.03;;;27.60;90.60;;;;;;4987695;28;20852;-66
2021/06/20 07:18:27;;;;;;;11.97;7.00;;;27.40;91.50;;;;;;4990710;28;20210;-62
2021/06/20 07:20:53;;;;;;;12.47;7.23;;;27.20;92.10;;;;;;4999109;28;20260;-64
2021/06/20 07:23:18;;;;;;;12.40;7.67;;;26.90;92.80;;;;;;4990424;28;20675;-65
2021/06/20 07:25:44;;;;;;;13.90;7.77;;;27.10;93.00;;;;;;4998675;28;20218;-65
2021/06/20 07:28:10;;;;;;;11.07;6.70;;;27.30;92.70;;;;;;4991722;28;20215;-57
2021/06/20 07:30:35;;;;;;;18.57;6.80;;;27.50;92.00;;;;;;5000494;28;20191;-57
2021/06/20 07:33:01;;;;;;;17.83;7.30;;;27.70;91.30;;;;;;4987066;28;20222;-57
2021/06/20 07:35:27;;;;;;;17.57;6.73;;;27.40;91.60;;;;;;4987488;28;20190;-57
2021/06/20 07:37:52;;;;;;;12.50;6.57;;;27.50;91.90;;;;;;4990625;28;20305;-57
2021/06/20 07:40:19;;;;;;;14.90;7.07;;;27.60;91.40;;;;;;4999139;28;20213;-57
2021/06/20 07:42:45;;;;;;;11.63;5.80;;;27.50;91.50;;;;;;4990206;28;20446;-58
2021/06/20 07:45:12;;;;;;;10.00;6.50;;;27.30;91.80;;;;;;5003453;28;20441;-57
2021/06/20 07:47:39;;;;;;;10.53;6.47;;;27.20;92.10;;;;;;4994912;28;20482;-57
2021/06/20 07:50:07;;;;;;;11.83;6.20;;;27.10;92.40;;;;;;5005878;28;20458;-58
2021/06/20 07:52:33;;;;;;;13.50;6.50;;;26.90;92.80;;;;;;4991569;28;20454;-58
2021/06/20 07:54:59;;;;;;;9.57;6.13;;;26.90;93.00;;;;;;4993691;28;20438;-57
2021/06/20 07:57:25;;;;;;;13.30;6.20;;;27.00;92.70;;;;;;4989035;28;20261;-57
2021/06/20 07:59:51;;;;;;;11.43;6.33;;;26.50;93.10;;;;;;4988728;28;20185;-57
2021/06/20 08:02:17;;;;;;;10.70;6.63;;;26.50;93.90;;;;;;4989271;28;20540;-57
2021/06/20 08:04:43;;;;;;;12.87;7.13;;;26.50;93.90;;;;;;5004614;28;20999;-57
2021/06/20 08:07:09;;;;;;;11.00;6.40;;;26.50;93.90;;;;;;4996004;28;20471;-58
2021/06/20 08:09:35;;;;;;;13.17;7.27;;;26.50;94.10;;;;;;4993828;28;21057;-58
2021/06/20 08:12:01;;;;;;;11.17;6.47;;;26.40;94.00;;;;;;4990981;28;20451;-57
2021/06/20 08:14:27;;;;;;;9.47;6.53;;;26.30;94.70;;;;;;4989543;28;20458;-58
2021/06/20 08:16:53;;;;;;;11.60;7.20;;;26.40;94.50;;;;;;4993141;28;20839;-57
2021/06/20 08:19:19;;;;;;;11.00;6.57;;;26.50;94.30;;;;;;4989307;28;20195;-57
2021/06/20 08:21:46;;;;;;;13.77;6.30;;;26.70;93.90;;;;;;4989763;28;20462;-58
2021/06/20 08:24:12;;;;;;;8.57;5.60;;;26.80;93.50;;;;;;4992431;28;20297;-58
2021/06/20 08:26:38;;;;;;;11.70;6.13;;;26.80;93.40;;;;;;4989412;28;20556;-57
2021/06/20 08:29:05;;;;;;;8.87;6.10;;;26.90;93.30;;;;;;5001121;28;20444;-57
2021/06/20 08:31:31;;;;;;;14.17;5.90;;;26.90;92.90;;;;;;4996121;28;20478;-57
2021/06/20 08:33:57;;;;;;;11.83;6.37;;;26.80;93.30;;;;;;4996787;28;20464;-57
2021/06/20 08:36:23;;;;;;;12.87;6.97;;;26.70;93.30;;;;;;4989978;28;20445;-57
2021/06/20 08:38:49;;;;;;;12.57;6.83;;;26.50;93.60;;;;;;4996208;28;20442;-57
2021/06/20 08:41:15;;;;;;;10.20;6.33;;;26.60;93.80;;;;;;4997172;28;20229;-57
2021/06/20 08:43:41;;;;;;;8.63;6.00;;;26.60;93.80;;;;;;4998631;28;20226;-57
2021/06/20 08:46:08;;;;;;;10.63;7.10;;;26.70;93.70;;;;;;4991172;28;20441;-58
2021/06/20 08:48:34;;;;;;;12.60;6.63;;;27.00;93.00;;;;;;5001377;28;20907;-58
2021/06/20 08:51:01;;;;;;;10.00;6.67;;;27.10;92.80;;;;;;4994289;28;20445;-57
2021/06/20 08:53:27;;;;;;;8.40;5.93;;;27.10;92.70;;;;;;4997339;28;20466;-58
2021/06/20 08:55:52;;;;;;;9.73;6.37;;;27.30;92.50;;;;;;4995071;28;20450;-58
2021/06/20 08:58:22;;;;;;;11.40;6.63;;;27.40;92.10;;;;;;4991608;28;20294;-57
2021/06/20 09:00:48;;;;;;;5.77;5.23;;;27.30;92.30;;;;;;4990885;28;20522;-57
2021/06/20 09:03:14;;;;;;;13.83;6.30;;;27.30;92.60;;;;;;5001908;28;20452;-57
2021/06/20 09:05:40;;;;;;;11.00;6.50;;;27.40;92.50;;;;;;4988596;28;20573;-57
2021/06/20 09:08:16;;;;;;;10.57;5.50;;;27.30;92.10;;;;;;4988793;28;20474;-57
2021/06/20 09:10:41;;;;;;;7.33;5.90;;;27.30;91.90;;;;;;4989822;28;20443;-57
2021/06/20 09:13:07;;;;;;;9.70;5.97;;;27.40;91.60;;;;;;4998872;28;20442;-58
2021/06/20 09:15:36;;;;;;;7.10;5.23;;;27.30;91.60;;;;;;4987801;28;20210;-58
2021/06/20 09:18:08;;;;;;;11.27;6.20;;;27.40;91.60;;;;;;4991428;28;20741;-57
2021/06/20 09:20:44;;;;;;;7.90;5.70;;;27.50;91.80;;;;;;4991081;28;20441;-58
2021/06/20 09:23:17;;;;;;;10.07;5.57;;;27.50;92.40;;;;;;4991124;28;20492;-58
2021/06/20 09:25:44;;;;;;;8.30;5.87;;;27.80;91.70;;;;;;4987240;28;20500;-57
2021/06/20 09:28:13;;;;;;;10.10;6.13;;;27.80;91.20;;;;;;4989171;28;20474;-57
2021/06/20 09:30:50;;;;;;;13.10;6.70;;;27.80;91.20;;;;;;4989858;28;20815;-57
2021/06/20 09:33:17;;;;;;;12.07;6.00;;;27.80;91.20;;;;;;4986995;28;20485;-57
2021/06/20 09:35:44;;;;;;;10.50;5.30;;;27.80;90.70;;;;;;4985151;28;20536;-57
2021/06/20 09:38:19;;;;;;;11.60;5.73;;;27.70;90.30;;;;;;4988320;28;20468;-57
2021/06/20 09:40:45;;;;;;;9.83;5.27;;;27.80;90.80;;;;;;4997773;28;20480;-57
2021/06/20 09:43:16;;;;;;;12.60;5.23;;;27.90;90.60;;;;;;4988956;28;20478;-58
2021/06/20 09:45:44;;;;;;;8.30;5.73;;;28.00;90.40;;;;;;4996873;28;20452;-57
2021/06/20 09:48:27;;;;;;;10.70;5.10;;;28.30;90.20;;;;;;5000564;28;20879;-57
2021/06/20 09:50:54;;;;;;;9.07;6.17;;;28.20;90.20;;;;;;4991086;28;20446;-57
2021/06/20 09:53:33;;;;;;;8.53;4.90;;;28.50;90.00;;;;;;4990085;28;20450;-57
2021/06/20 09:56:09;;;;;;;7.70;5.40;;;28.60;88.20;;;;;;4984008;28;20456;-57
2021/06/20 09:58:35;;;;;;;10.73;4.90;;;28.60;88.10;;;;;;4988101;28;20474;-58
2021/06/20 10:01:09;;;;;;;8.70;4.33;;;28.70;84.50;;;;;;4989846;28;20450;-61
2021/06/20 10:03:36;;;;;;;6.27;4.40;;;28.60;85.30;;;;;;4982388;28;20448;-59
2021/06/20 10:06:01;;;;;;;9.10;4.73;;;28.70;85.20;;;;;;4983987;28;20453;-60
2021/06/20 10:08:27;;;;;;;10.10;4.40;;;28.60;82.60;;;;;;4982338;28;20484;-59
2021/06/20 10:10:53;;;;;;;9.53;4.37;;;28.60;84.10;;;;;;4983956;28;20200;-62
2021/06/20 10:13:18;;;;;;;6.20;4.37;;;28.40;82.70;;;;;;4985210;28;20960;-60
2021/06/20 10:15:44;;;;;;;7.53;3.90;;;28.30;82.40;;;;;;4983137;28;20187;-59
2021/06/20 10:18:12;;;;;;;5.60;3.90;;;28.30;80.50;;;;;;4984526;28;20203;-60
2021/06/20 10:20:39;;;;;;;4.50;3.13;;;28.20;80.00;;;;;;4983356;28;20193;-60
2021/06/20 10:23:15;;;;;;;7.80;3.10;;;28.10;79.30;;;;;;5003587;28;20489;-58
2021/06/20 10:25:41;;;;;;;5.10;3.13;;;28.00;79.00;;;;;;4980851;28;20553;-63
2021/06/20 10:28:12;;;;;;;6.40;3.73;;;28.00;79.50;;;;;;4983217;28;20596;-60
2021/06/20 10:30:39;;;;;;;9.40;3.90;;;28.00;79.00;;;;;;4981617;28;20266;-60
2021/06/20 10:33:06;;;;;;;9.53;3.20;;;28.00;78.70;;;;;;4983214;28;21062;-60
2021/06/20 10:35:32;;;;;;;6.30;3.27;;;27.80;78.00;;;;;;4982016;28;20805;-59
2021/06/20 10:37:58;;;;;;;7.17;3.00;;;27.90;79.10;;;;;;4999381;28;20470;-61
2021/06/20 10:40:29;;;;;;;3.80;2.50;;;27.90;78.60;;;;;;4984071;28;20525;-61
2021/06/20 10:42:56;;;;;;;8.67;4.10;;;27.90;77.60;;;;;;4983609;28;20638;-60
2021/06/20 10:45:32;;;;;;;4.90;3.10;;;28.00;78.10;;;;;;4984947;28;20447;-59
2021/06/20 10:48:09;;;;;;;6.47;3.40;;;27.90;78.60;;;;;;4983571;28;20564;-61
2021/06/20 10:50:41;;;;;;;6.17;3.17;;;28.00;76.90;;;;;;4999232;28;20451;-61
2021/06/20 10:53:07;;;;;;;4.57;2.80;;;28.00;76.80;;;;;;4998358;28;20446;-63
2021/06/20 10:55:45;;;;;;;7.43;3.23;;;27.90;77.70;;;;;;4983039;28;20545;-66
2021/06/20 10:58:16;;;;;;;5.27;3.10;;;28.10;77.60;;;;;;4982870;28;20470;-62
2021/06/20 11:00:41;;;;;;;5.40;3.20;;;28.30;77.20;;;;;;4988232;28;20546;-57
2021/06/20 11:03:11;;;;;;;8.53;3.60;;;28.70;75.10;;;;;;4987565;28;20537;-61
2021/06/20 11:05:51;;;;;;;4.00;3.07;;;28.90;74.20;;;;;;5001649;28;20529;-63
2021/06/20 11:08:52;;;;;;;8.37;3.23;;;29.10;74.50;;;;;;4986378;28;20633;-63
2021/06/20 11:11:18;;;;;;;4.33;2.90;;;29.50;72.90;;;;;;4986205;28;20461;-59
2021/06/20 11:14:00;;;;;;;6.27;2.63;;;29.90;72.00;;;;;;4991746;28;20437;-59
2021/06/20 11:16:27;;;;;;;4.40;2.60;;;30.10;71.00;;;;;;4990111;28;20291;-60
2021/06/20 11:19:17;;;;;;;5.63;3.00;;;30.70;69.50;;;;;;4984461;28;20477;-59
2021/06/20 11:21:42;;;;;;;10.93;3.53;;;30.90;69.10;;;;;;4986812;28;20533;-59
2021/06/20 11:24:11;;;;;;;8.00;2.90;;;31.30;67.40;;;;;;4995799;28;20530;-60
2021/06/20 11:26:37;;;;;;;5.50;3.20;;;31.90;65.40;;;;;;5002012;28;20259;-60
2021/06/20 11:29:09;;;;;;;5.80;2.70;;;32.20;63.90;;;;;;4989655;28;20959;-60
2021/06/20 11:31:50;;;;;;;7.03;2.97;;;32.60;63.00;;;;;;4987880;28;20967;-59
2021/06/20 11:34:16;;;;;;;7.10;2.77;;;32.80;62.00;;;;;;4995538;28;20547;-60
2021/06/20 11:36:42;;;;;;;5.90;3.03;;;32.80;62.60;;;;;;4992409;28;20540;-60
2021/06/20 11:39:10;;;;;;;6.03;3.30;;;33.10;60.10;;;;;;4991796;28;20684;-60
2021/06/20 11:41:45;;;;;;;6.77;3.30;;;33.00;59.90;;;;;;5004199;28;20740;-59
2021/06/20 11:44:12;;;;;;;6.73;3.60;;;33.30;59.90;;;;;;4997554;28;20437;-60
2021/06/20 11:46:41;;;;;;;9.03;4.00;;;33.20;60.10;;;;;;4992732;28;20451;-60
2021/06/20 11:49:11;;;;;;;8.23;3.30;;;33.10;59.90;;;;;;5006308;28;20444;-60
2021/06/20 11:51:42;;;;;;;4.83;3.10;;;32.70;60.70;;;;;;4996118;28;20771;-59
2021/06/20 11:54:17;;;;;;;7.67;3.77;;;32.40;61.60;;;;;;4978916;28;20451;-60
2021/06/20 11:56:52;;;;;;;8.03;3.47;;;32.20;60.10;;;;;;4990318;28;20451;-60
2021/06/20 11:59:33;;;;;;;5.03;3.30;;;32.00;61.80;;;;;;4991970;28;20455;-60
2021/06/20 12:02:00;;;;;;;7.13;3.60;;;31.70;63.40;;;;;;4997190;28;20460;-59
2021/06/20 12:04:29;;;;;;;7.20;3.63;;;31.50;63.40;;;;;;4991592;28;20442;-60
2021/06/20 12:06:56;;;;;;;8.63;3.53;;;31.40;63.60;;;;;;4994109;28;20474;-59
2021/06/20 12:09:23;;;;;;;5.10;3.53;;;31.40;64.40;;;;;;4988340;28;20529;-59
2021/06/20 12:11:57;;;;;;;10.67;4.47;;;31.40;63.10;;;;;;4991463;28;20445;-59
2021/06/20 12:14:25;;;;;;;10.53;3.70;;;31.00;64.00;;;;;;5000380;28;21040;-59
2021/06/20 12:16:53;;;;;;;7.90;3.60;;;30.90;64.20;;;;;;4996500;28;20465;-59
2021/06/20 12:19:21;;;;;;;8.90;4.40;;;30.80;64.70;;;;;;4990634;28;20950;-59
2021/06/20 12:21:49;;;;;;;12.30;3.90;;;30.50;65.90;;;;;;5012453;28;20448;-60
2021/06/20 12:24:15;;;;;;;11.30;4.07;;;30.50;66.70;;;;;;4982551;28;20545;-59
2021/06/20 12:26:52;;;;;;;9.67;3.70;;;30.70;65.00;;;;;;4997242;28;20450;-59
2021/06/20 12:29:19;;;;;;;8.90;4.77;;;30.70;65.20;;;;;;4990749;28;20448;-59
2021/06/20 12:32:15;;;;;;;8.20;3.90;;;30.60;65.60;;;;;;4991175;28;20445;-60
2021/06/20 12:34:45;;;;;;;8.17;4.17;;;30.70;64.60;;;;;;4980778;28;20529;-60
2021/06/20 12:37:11;;;;;;;12.73;4.07;;;30.50;64.60;;;;;;4991216;28;20475;-60
2021/06/20 12:39:51;;;;;;;10.63;3.87;;;30.30;64.60;;;;;;4989054;28;20442;-59